Time;durP1;ratioP1;P1;durP2;ratioP2;P2;SDS_P1;SDS_P2;PMS_P1;PMS_P2;Temp;Humidity;BMP_temperature;BMP_pressure;BME280_temperature;BME280_humidity;BME280_pressure;Samples;Min_cycle;Max_cycle;Signal;HPM_P1;HPM_P2
2022/05/02 00:00:34;;;;;;;7.00;6.27;;;20.20;47.00;;;;;;5028722;28;20212;-43
2022/05/02 00:02:59;;;;;;;7.60;7.00;;;20.20;46.90;;;;;;5021263;28;20557;-44
2022/05/02 00:05:27;;;;;;;7.10;6.50;;;20.20;46.80;;;;;;5021637;28;20435;-47
2022/05/02 00:07:52;;;;;;;8.50;7.70;;;20.20;46.70;;;;;;5021110;28;20198;-43
2022/05/02 00:10:18;;;;;;;9.53;8.60;;;20.30;47.20;;;;;;5023150;28;20935;-44
2022/05/02 00:12:44;;;;;;;9.93;8.93;;;20.30;46.50;;;;;;5024778;28;20201;-44
2022/05/02 00:15:11;;;;;;;10.13;8.23;;;20.20;46.20;;;;;;5024765;28;20189;-43
2022/05/02 00:20:21;;;;;;;9.67;8.77;;;19.80;46.50;;;;;;5025163;28;20492;-43
2022/05/02 00:22:47;;;;;;;10.13;9.30;;;19.60;46.90;;;;;;5022742;28;21038;-43
2022/05/02 00:25:13;;;;;;;9.23;8.43;;;19.40;47.60;;;;;;5023456;28;20201;-44
2022/05/02 00:27:40;;;;;;;9.80;8.80;;;19.20;48.10;;;;;;5025045;28;20192;-43
2022/05/02 00:30:07;;;;;;;9.17;8.23;;;19.00;48.40;;;;;;5027744;28;21025;-43
2022/05/02 00:32:33;;;;;;;8.97;8.07;;;18.90;48.80;;;;;;5026486;28;20971;-44
2022/05/02 00:34:58;;;;;;;10.00;9.20;;;18.70;49.30;;;;;;5020526;28;20443;-43
2022/05/02 00:37:24;;;;;;;9.30;8.40;;;18.60;49.60;;;;;;5017188;28;20776;-43
2022/05/02 00:39:49;;;;;;;9.93;8.93;;;18.60;49.80;;;;;;5025789;28;20560;-43
2022/05/02 00:42:15;;;;;;;10.27;9.27;;;18.50;50.00;;;;;;5023673;28;20703;-44
2022/05/02 00:44:43;;;;;;;9.60;8.60;;;18.40;50.40;;;;;;5027746;28;20197;-44
2022/05/02 00:47:09;;;;;;;10.20;9.30;;;18.40;50.80;;;;;;5020762;28;20324;-44
2022/05/02 00:49:36;;;;;;;9.67;8.67;;;18.20;50.90;;;;;;5021240;28;20621;-43
2022/05/02 00:52:01;;;;;;;9.80;8.90;;;18.20;51.10;;;;;;5021725;28;20205;-43
2022/05/02 00:54:27;;;;;;;8.93;8.03;;;18.10;51.40;;;;;;5021328;28;20920;-43
2022/05/02 00:56:53;;;;;;;10.43;8.93;;;18.10;51.60;;;;;;5023117;28;20642;-43
2022/05/02 00:59:21;;;;;;;9.13;8.33;;;18.00;51.70;;;;;;5028494;28;20193;-45
2022/05/02 01:01:47;;;;;;;7.93;7.13;;;18.00;51.80;;;;;;5019234;28;20181;-44
2022/05/02 01:04:12;;;;;;;8.43;7.53;;;18.00;51.90;;;;;;5026810;28;20946;-43
2022/05/02 01:09:22;;;;;;;9.13;8.33;;;18.00;51.40;;;;;;5020016;28;20245;-43
2022/05/02 01:11:47;;;;;;;9.57;8.67;;;18.00;51.90;;;;;;5026379;28;20440;-45
2022/05/02 01:14:13;;;;;;;8.70;7.80;;;18.00;51.20;;;;;;5016855;28;20733;-43
2022/05/02 01:16:38;;;;;;;10.93;9.33;;;18.00;51.20;;;;;;5023514;28;22378;-43
2022/05/02 01:19:04;;;;;;;10.57;9.43;;;18.00;51.30;;;;;;5019852;28;20205;-43
2022/05/02 01:21:30;;;;;;;13.83;9.60;;;17.90;51.40;;;;;;5016077;28;20196;-43
2022/05/02 01:24:02;;;;;;;13.90;9.67;;;17.90;51.60;;;;;;5023313;28;20680;-44
2022/05/02 01:26:28;;;;;;;13.50;10.47;;;17.80;51.80;;;;;;5015652;28;20280;-44
2022/05/02 01:28:58;;;;;;;12.70;10.90;;;17.80;51.90;;;;;;5022231;28;20519;-43
2022/05/02 01:31:24;;;;;;;11.53;10.30;;;17.80;51.90;;;;;;5023412;28;20448;-44
2022/05/02 01:33:51;;;;;;;12.00;10.70;;;17.70;52.00;;;;;;5026210;28;20463;-44
2022/05/02 01:36:18;;;;;;;12.90;10.57;;;17.70;52.20;;;;;;5021224;28;20455;-43
2022/05/02 01:38:44;;;;;;;11.67;10.17;;;17.70;52.30;;;;;;5019414;28;20463;-43
2022/05/02 01:41:10;;;;;;;10.30;9.20;;;17.60;52.40;;;;;;5023516;28;20448;-43
2022/05/02 01:43:36;;;;;;;9.90;8.73;;;17.70;52.70;;;;;;5024886;28;21030;-43
2022/05/02 01:46:05;;;;;;;9.70;8.70;;;17.60;52.70;;;;;;5026454;28;20523;-44
2022/05/02 01:48:30;;;;;;;10.23;9.33;;;17.60;52.70;;;;;;5027815;28;20472;-43
2022/05/02 01:50:57;;;;;;;8.63;7.93;;;17.60;52.70;;;;;;5023002;28;20802;-43
2022/05/02 01:53:22;;;;;;;8.63;7.73;;;17.60;52.70;;;;;;5026303;28;20201;-43
2022/05/02 01:55:48;;;;;;;11.00;9.00;;;17.50;52.70;;;;;;5023955;28;21015;-43
2022/05/02 01:58:14;;;;;;;9.73;8.80;;;17.40;52.90;;;;;;5020991;28;20763;-43
2022/05/02 02:00:40;;;;;;;11.40;8.97;;;17.40;53.10;;;;;;5027798;28;20216;-43
2022/05/02 02:03:06;;;;;;;9.90;9.00;;;17.40;53.30;;;;;;5020322;28;20487;-43
2022/05/02 02:05:50;;;;;;;10.77;9.77;;;17.40;53.50;;;;;;5026124;28;20287;-43
2022/05/02 02:08:18;;;;;;;10.50;9.60;;;17.40;53.60;;;;;;5025225;28;20305;-44
2022/05/02 02:10:44;;;;;;;10.43;9.50;;;17.30;53.50;;;;;;5028203;28;20440;-43
2022/05/02 02:13:11;;;;;;;10.90;9.00;;;17.40;53.50;;;;;;5029327;28;20479;-43
2022/05/02 02:15:37;;;;;;;9.50;8.60;;;17.30;53.70;;;;;;5027995;28;20569;-43
2022/05/02 02:18:03;;;;;;;10.30;9.40;;;17.30;53.80;;;;;;5026763;28;20486;-44
2022/05/02 02:20:30;;;;;;;10.20;9.30;;;17.20;53.90;;;;;;5027479;28;20447;-43
2022/05/02 02:22:55;;;;;;;10.00;9.17;;;17.20;53.90;;;;;;5028159;28;20494;-43
2022/05/02 02:25:21;;;;;;;9.97;9.07;;;17.20;53.90;;;;;;5024077;28;20440;-43
2022/05/02 02:27:47;;;;;;;10.73;9.77;;;17.30;54.00;;;;;;5028640;28;20675;-43
2022/05/02 02:30:14;;;;;;;9.87;9.07;;;17.20;53.90;;;;;;5024776;28;20197;-43
2022/05/02 02:32:41;;;;;;;11.10;10.10;;;17.20;54.10;;;;;;5019647;28;20210;-44
2022/05/02 02:35:07;;;;;;;10.90;9.90;;;17.20;54.20;;;;;;5024806;28;20471;-43
2022/05/02 02:37:33;;;;;;;10.27;9.30;;;17.20;54.20;;;;;;5021876;28;20976;-45
2022/05/02 02:39:58;;;;;;;10.23;9.00;;;17.20;54.30;;;;;;5017664;28;20519;-44
2022/05/02 02:42:24;;;;;;;10.23;9.33;;;17.30;54.40;;;;;;5014374;28;20279;-43
2022/05/02 02:44:50;;;;;;;11.90;9.70;;;17.30;54.10;;;;;;5022056;28;20204;-43
2022/05/02 02:47:16;;;;;;;9.50;8.70;;;17.40;54.20;;;;;;5021342;28;20232;-43
2022/05/02 02:49:42;;;;;;;9.93;8.93;;;17.30;54.10;;;;;;5025912;28;20448;-43
2022/05/02 02:52:08;;;;;;;9.50;8.70;;;17.30;54.20;;;;;;5017459;28;20255;-44
2022/05/02 02:54:34;;;;;;;10.40;9.50;;;17.30;54.50;;;;;;5015371;28;20198;-44
2022/05/02 02:57:00;;;;;;;9.60;8.70;;;17.40;54.50;;;;;;5027574;28;20452;-43
2022/05/02 02:59:25;;;;;;;10.40;9.40;;;17.40;54.00;;;;;;5026748;28;20482;-44
2022/05/02 03:01:51;;;;;;;10.10;9.30;;;17.40;53.80;;;;;;5027375;28;20200;-43
2022/05/02 03:07:01;;;;;;;11.33;10.33;;;17.40;54.10;;;;;;5029552;28;20250;-43
2022/05/02 03:09:28;;;;;;;10.50;9.50;;;17.30;54.00;;;;;;5022463;28;20448;-43
2022/05/02 03:11:54;;;;;;;11.67;10.53;;;17.30;54.20;;;;;;5023259;28;20194;-43
2022/05/02 03:14:19;;;;;;;10.70;9.60;;;17.20;54.60;;;;;;5026555;28;20482;-44
2022/05/02 03:16:45;;;;;;;10.07;9.17;;;17.30;54.70;;;;;;5018729;28;20195;-43
2022/05/02 03:19:11;;;;;;;11.37;10.17;;;17.30;54.50;;;;;;5022340;28;20185;-44
2022/05/02 03:21:37;;;;;;;10.73;9.70;;;17.30;54.60;;;;;;5026911;28;20201;-45
2022/05/02 03:24:03;;;;;;;11.07;9.87;;;17.40;54.50;;;;;;5028365;28;20236;-43
2022/05/02 03:26:28;;;;;;;11.20;9.73;;;17.40;54.40;;;;;;5025293;28;20201;-43
2022/05/02 03:28:54;;;;;;;9.97;9.17;;;17.20;54.40;;;;;;5025219;28;20932;-43
2022/05/02 03:31:20;;;;;;;11.47;10.20;;;17.10;55.30;;;;;;5026504;28;20198;-43
2022/05/02 03:33:46;;;;;;;11.03;10.03;;;17.10;55.40;;;;;;5019739;28;20447;-43
2022/05/02 03:36:11;;;;;;;10.23;9.23;;;17.20;55.30;;;;;;5028687;28;20202;-43
2022/05/02 03:38:37;;;;;;;10.70;9.70;;;17.20;55.10;;;;;;5022606;28;20193;-43
2022/05/02 03:41:03;;;;;;;10.47;9.47;;;17.20;54.90;;;;;;5015028;28;20209;-43
2022/05/02 03:43:29;;;;;;;10.43;9.17;;;17.30;54.90;;;;;;5019753;28;20249;-43
2022/05/02 03:45:54;;;;;;;9.57;8.67;;;17.30;54.90;;;;;;5017014;28;20202;-43
2022/05/02 03:48:20;;;;;;;10.03;9.13;;;17.30;55.00;;;;;;5020640;28;21019;-43
2022/05/02 03:50:46;;;;;;;11.60;10.60;;;17.40;54.60;;;;;;5025377;28;21334;-43
2022/05/02 03:53:15;;;;;;;11.50;10.30;;;17.40;54.60;;;;;;5021352;28;20445;-44
2022/05/02 03:55:44;;;;;;;10.90;9.90;;;17.50;54.60;;;;;;5021305;28;20204;-48
2022/05/02 03:58:10;;;;;;;10.77;9.67;;;17.40;54.40;;;;;;5024161;28;20521;-43
2022/05/02 04:00:35;;;;;;;10.33;9.37;;;17.30;54.50;;;;;;5024636;28;20436;-43
2022/05/02 04:03:01;;;;;;;10.50;9.60;;;17.30;54.60;;;;;;5025138;28;20668;-43
2022/05/02 04:05:27;;;;;;;10.60;9.50;;;17.20;54.70;;;;;;5023549;28;20197;-43
2022/05/02 04:07:52;;;;;;;9.93;8.93;;;17.10;54.90;;;;;;5026594;28;20197;-43
2022/05/02 04:10:18;;;;;;;11.20;10.10;;;17.10;55.10;;;;;;5026205;28;20255;-43
2022/05/02 04:12:44;;;;;;;12.60;11.27;;;17.00;55.10;;;;;;5027299;28;20215;-43
2022/05/02 04:15:10;;;;;;;11.27;9.90;;;17.00;55.30;;;;;;5020896;28;20443;-43
2022/05/02 04:17:36;;;;;;;10.07;9.17;;;16.90;55.30;;;;;;5026737;28;20197;-43
2022/05/02 04:20:03;;;;;;;10.90;9.90;;;16.90;55.50;;;;;;5022492;28;20208;-43
2022/05/02 04:22:29;;;;;;;10.13;9.23;;;16.80;55.40;;;;;;5026075;28;20475;-43
2022/05/02 04:24:55;;;;;;;10.50;9.60;;;16.80;55.50;;;;;;5022036;28;20450;-43
2022/05/02 04:27:21;;;;;;;10.67;9.67;;;16.70;55.40;;;;;;5025035;28;20212;-42
2022/05/02 04:29:46;;;;;;;9.77;8.87;;;16.70;55.30;;;;;;5027764;28;20440;-43
2022/05/02 04:32:12;;;;;;;10.83;9.93;;;16.70;55.30;;;;;;5025825;28;20197;-43
2022/05/02 04:34:38;;;;;;;10.43;9.43;;;16.60;55.30;;;;;;5015510;28;20244;-43
2022/05/02 04:37:04;;;;;;;11.07;10.07;;;16.70;55.40;;;;;;5023074;28;20266;-43
2022/05/02 04:39:29;;;;;;;9.70;8.80;;;16.60;55.40;;;;;;5023142;28;20335;-42
2022/05/02 04:41:55;;;;;;;10.20;9.40;;;16.60;55.50;;;;;;5015651;28;22490;-44
2022/05/02 04:44:20;;;;;;;10.30;9.30;;;16.50;55.40;;;;;;5022393;28;20255;-43
2022/05/02 04:46:46;;;;;;;11.50;10.30;;;16.50;55.40;;;;;;5022798;28;20190;-44
2022/05/02 04:49:12;;;;;;;10.07;9.17;;;16.50;55.50;;;;;;5023557;28;20209;-44
2022/05/02 04:51:37;;;;;;;12.30;9.93;;;16.50;55.60;;;;;;5027346;28;20197;-44
2022/05/02 04:54:03;;;;;;;10.23;9.23;;;16.40;55.60;;;;;;5026145;28;20193;-44
2022/05/02 04:56:28;;;;;;;10.70;9.70;;;16.40;55.70;;;;;;5020851;28;20194;-43
2022/05/02 04:58:54;;;;;;;11.00;10.00;;;16.50;55.80;;;;;;5020579;28;20708;-43
2022/05/02 05:01:20;;;;;;;10.60;9.70;;;16.40;55.80;;;;;;5026183;28;20288;-43
2022/05/02 05:03:46;;;;;;;10.43;9.53;;;16.40;55.80;;;;;;5026024;28;20267;-43
2022/05/02 05:06:12;;;;;;;10.83;9.80;;;16.40;56.00;;;;;;5018527;28;20197;-43
2022/05/02 05:08:39;;;;;;;11.33;10.23;;;16.40;56.20;;;;;;5020310;28;20494;-44
2022/05/02 05:11:23;;;;;;;10.90;9.90;;;16.40;56.30;;;;;;5018293;28;20308;-43
2022/05/02 05:17:29;;;;;;;11.33;10.23;;;16.50;56.60;;;;;;5019963;28;20498;-42
2022/05/02 05:20:13;;;;;;;12.13;11.03;;;16.60;56.60;;;;;;5026988;28;20460;-43
2022/05/02 05:22:59;;;;;;;13.63;12.33;;;16.60;56.40;;;;;;5027695;28;20490;-42
2022/05/02 05:25:42;;;;;;;12.70;11.50;;;16.80;56.60;;;;;;5021006;28;20963;-43
2022/05/02 05:28:15;;;;;;;14.93;8.70;;;16.90;56.40;;;;;;5025003;28;20443;-43
2022/05/02 05:30:46;;;;;;;10.30;9.20;;;16.60;57.60;;;;;;5025130;28;21414;-43
2022/05/02 05:33:29;;;;;;;10.20;9.20;;;16.90;57.30;;;;;;5023902;28;20448;-43
2022/05/02 05:36:34;;;;;;;11.57;10.57;;;17.30;56.10;;;;;;5011131;28;20493;-44
2022/05/02 05:39:03;;;;;;;10.50;9.50;;;17.70;54.90;;;;;;5019313;28;20452;-43
2022/05/02 05:41:37;;;;;;;10.00;9.10;;;17.90;54.10;;;;;;5023712;28;20448;-43
2022/05/02 05:44:14;;;;;;;10.43;9.60;;;18.10;53.70;;;;;;5024019;28;21013;-43
2022/05/02 05:47:04;;;;;;;9.30;8.40;;;18.20;53.30;;;;;;5013125;28;20830;-43
2022/05/02 05:50:18;;;;;;;9.10;8.30;;;18.40;52.90;;;;;;5023488;28;20459;-43
2022/05/02 05:53:28;;;;;;;10.63;9.63;;;18.40;52.50;;;;;;5003824;28;21062;-44
2022/05/02 05:56:12;;;;;;;10.67;9.70;;;18.60;52.20;;;;;;4979451;28;20957;-44
2022/05/02 05:59:09;;;;;;;9.53;8.70;;;18.70;51.90;;;;;;5022207;28;20524;-44
2022/05/02 06:01:51;;;;;;;10.80;9.90;;;18.90;51.80;;;;;;5023064;28;20521;-44
2022/05/02 06:04:17;;;;;;;10.77;9.80;;;19.00;51.70;;;;;;5020023;28;20491;-43
2022/05/02 06:06:47;;;;;;;11.70;10.70;;;19.00;51.70;;;;;;5016493;28;20471;-43
2022/05/02 06:09:14;;;;;;;11.70;10.70;;;19.10;51.90;;;;;;5018802;28;20527;-43
2022/05/02 06:11:40;;;;;;;11.67;10.67;;;19.10;52.10;;;;;;5021342;28;20892;-43
2022/05/02 06:14:06;;;;;;;13.43;12.23;;;19.10;52.30;;;;;;5023714;28;20444;-43
2022/05/02 06:19:25;;;;;;;15.00;13.60;;;19.10;52.10;;;;;;5025590;28;20247;-43
2022/05/02 06:21:52;;;;;;;15.37;13.87;;;19.00;52.00;;;;;;5021308;28;20821;-42
2022/05/02 06:24:18;;;;;;;15.03;13.50;;;19.00;52.20;;;;;;5027087;28;20629;-42
2022/05/02 06:26:46;;;;;;;15.67;14.13;;;19.10;52.70;;;;;;5028352;28;20531;-42
2022/05/02 06:29:12;;;;;;;16.83;15.20;;;19.10;52.80;;;;;;5027482;28;20436;-42
2022/05/02 06:31:45;;;;;;;17.70;16.00;;;19.10;52.70;;;;;;5029531;28;20419;-42
2022/05/02 06:34:12;;;;;;;15.50;14.00;;;19.10;52.60;;;;;;5025641;28;20443;-44
2022/05/02 06:36:47;;;;;;;15.93;14.53;;;19.10;52.70;;;;;;5030631;28;20505;-43
2022/05/02 06:39:44;;;;;;;16.10;14.70;;;19.20;52.50;;;;;;5031880;28;20454;-42
2022/05/02 06:42:29;;;;;;;14.77;13.50;;;19.30;52.50;;;;;;5023402;28;21000;-42
2022/05/02 06:45:14;;;;;;;14.80;13.50;;;19.40;52.20;;;;;;5032463;28;20469;-42
2022/05/02 06:48:13;;;;;;;14.77;13.33;;;19.20;51.90;;;;;;5030294;28;20487;-42
2022/05/02 06:50:40;;;;;;;14.83;13.20;;;19.20;52.60;;;;;;5024110;28;20457;-42
2022/05/02 06:53:08;;;;;;;14.70;13.43;;;19.30;52.50;;;;;;5026339;28;20927;-42
2022/05/02 06:55:46;;;;;;;15.47;14.07;;;19.40;52.20;;;;;;5029813;28;21122;-43
2022/05/02 06:58:19;;;;;;;15.50;14.10;;;19.60;52.10;;;;;;5029258;28;20451;-42
2022/05/02 07:01:14;;;;;;;14.37;13.07;;;19.80;51.70;;;;;;5028303;28;20446;-42
2022/05/02 07:03:56;;;;;;;14.83;13.40;;;19.90;51.30;;;;;;5012993;28;20501;-42
2022/05/02 07:06:39;;;;;;;15.17;13.77;;;19.90;51.10;;;;;;5026009;28;20476;-41
2022/05/02 07:09:09;;;;;;;15.97;14.47;;;20.00;50.90;;;;;;5026350;28;20473;-42
2022/05/02 07:11:47;;;;;;;14.57;13.27;;;20.20;50.90;;;;;;5029244;28;20471;-42
2022/05/02 07:14:40;;;;;;;14.80;13.47;;;20.30;50.50;;;;;;5031811;28;20445;-43
2022/05/02 07:17:24;;;;;;;14.17;12.87;;;20.30;50.70;;;;;;5023031;28;20451;-42
2022/05/02 07:20:01;;;;;;;16.60;13.90;;;20.40;50.70;;;;;;5020792;28;20498;-42
2022/05/02 07:22:34;;;;;;;15.73;14.07;;;20.60;50.20;;;;;;5029766;28;20578;-42
2022/05/02 07:25:12;;;;;;;14.93;13.70;;;20.70;50.00;;;;;;5029865;28;20554;-42
2022/05/02 07:27:59;;;;;;;13.87;12.57;;;20.90;49.90;;;;;;5024892;28;20447;-42
2022/05/02 07:30:25;;;;;;;14.17;13.03;;;21.00;49.50;;;;;;5028706;28;20823;-42
2022/05/02 07:32:53;;;;;;;14.77;13.43;;;21.20;48.80;;;;;;5031222;28;20452;-42
2022/05/02 07:35:21;;;;;;;15.80;14.23;;;21.20;48.80;;;;;;5031657;28;20259;-42
2022/05/02 07:37:48;;;;;;;15.57;14.13;;;21.40;48.40;;;;;;5032543;28;20443;-42
2022/05/02 07:40:20;;;;;;;15.47;14.17;;;21.50;48.00;;;;;;5032446;28;20455;-43
2022/05/02 07:42:47;;;;;;;16.53;14.90;;;21.60;48.00;;;;;;5030182;28;20579;-42
2022/05/02 07:45:17;;;;;;;16.03;14.60;;;21.70;47.70;;;;;;5029002;28;20448;-42
2022/05/02 07:47:44;;;;;;;14.87;13.50;;;21.70;47.30;;;;;;5030567;28;20479;-42
2022/05/02 07:50:12;;;;;;;15.30;13.90;;;21.80;47.10;;;;;;5030234;28;20487;-43
2022/05/02 07:52:41;;;;;;;14.50;13.27;;;21.80;46.70;;;;;;5030747;28;20435;-42
2022/05/02 07:55:09;;;;;;;15.20;13.70;;;21.80;47.10;;;;;;5029591;28;20445;-42
2022/05/02 07:57:38;;;;;;;14.67;13.10;;;21.90;47.00;;;;;;5029648;28;21023;-43
2022/05/02 08:00:07;;;;;;;15.20;13.73;;;22.00;47.60;;;;;;5029526;28;20478;-43
2022/05/02 08:02:34;;;;;;;14.93;13.47;;;22.30;46.70;;;;;;5027728;28;20951;-42
2022/05/02 08:05:00;;;;;;;15.70;14.20;;;22.40;46.60;;;;;;5028513;28;20466;-42
2022/05/02 08:07:36;;;;;;;14.03;12.90;;;22.60;46.50;;;;;;5028775;28;20440;-46
2022/05/02 08:10:35;;;;;;;14.13;12.77;;;22.70;46.50;;;;;;5030969;28;20580;-44
2022/05/02 08:13:09;;;;;;;15.37;13.70;;;22.60;46.20;;;;;;5015848;28;20541;-42
2022/05/02 08:15:44;;;;;;;15.40;14.00;;;22.70;46.70;;;;;;5028021;28;20459;-43
2022/05/02 08:18:24;;;;;;;14.23;13.03;;;22.70;46.70;;;;;;5024452;28;20454;-46
2022/05/02 08:21:02;;;;;;;15.10;13.70;;;22.80;46.40;;;;;;5034550;28;20950;-46
2022/05/02 08:27:17;;;;;;;14.27;12.97;;;23.10;46.20;;;;;;5035319;28;20464;-43
2022/05/02 08:29:56;;;;;;;15.00;13.57;;;23.30;46.30;;;;;;5030660;28;20448;-44
2022/05/02 08:32:51;;;;;;;13.60;12.40;;;23.50;45.30;;;;;;5023645;28;20452;-47
2022/05/02 08:35:20;;;;;;;15.70;14.30;;;23.70;44.90;;;;;;5026312;28;20455;-44
2022/05/02 08:37:58;;;;;;;15.00;13.63;;;23.90;44.30;;;;;;5022280;28;20476;-45
2022/05/02 08:40:23;;;;;;;14.00;12.60;;;24.10;45.20;;;;;;5027006;28;20497;-43
2022/05/02 08:43:08;;;;;;;19.13;13.57;;;24.20;44.10;;;;;;5019957;28;20472;-43
2022/05/02 08:46:02;;;;;;;11.73;10.50;;;24.20;43.90;;;;;;5027440;28;20221;-44
2022/05/02 08:48:39;;;;;;;14.73;13.53;;;24.40;44.10;;;;;;5025177;28;20491;-44
2022/05/02 08:51:54;;;;;;;13.17;11.93;;;24.60;41.40;;;;;;5027205;28;20466;-47
2022/05/02 08:54:45;;;;;;;13.77;12.60;;;24.20;41.40;;;;;;5006829;28;20970;-45
2022/05/02 08:57:32;;;;;;;12.97;11.70;;;24.30;41.30;;;;;;5028209;28;20461;-43
2022/05/02 09:00:09;;;;;;;13.57;12.37;;;24.50;41.90;;;;;;5026572;28;20476;-46
2022/05/02 09:03:12;;;;;;;15.03;13.70;;;24.60;42.00;;;;;;5014543;28;20472;-45
2022/05/02 09:05:59;;;;;;;14.03;12.50;;;24.60;41.70;;;;;;5023076;28;20505;-43
2022/05/02 09:08:52;;;;;;;13.90;12.70;;;24.70;42.40;;;;;;5022616;28;20491;-44
2022/05/02 09:11:32;;;;;;;12.93;11.80;;;24.70;42.00;;;;;;5021928;28;20455;-46
2022/05/02 09:14:18;;;;;;;13.43;12.23;;;24.70;41.20;;;;;;5026174;28;20543;-43
2022/05/02 09:17:25;;;;;;;15.17;13.30;;;24.90;39.90;;;;;;5023601;28;20440;-44
2022/05/02 09:20:25;;;;;;;11.80;10.80;;;24.90;39.90;;;;;;5007022;28;20467;-44
2022/05/02 09:23:27;;;;;;;13.13;11.90;;;25.10;40.30;;;;;;5023622;28;20531;-44
2022/05/02 09:26:05;;;;;;;11.00;10.10;;;25.30;41.30;;;;;;5024928;28;20943;-47
2022/05/02 09:28:58;;;;;;;16.03;13.40;;;25.20;37.10;;;;;;5017525;28;20559;-45
2022/05/02 09:31:57;;;;;;;11.57;9.93;;;24.80;38.80;;;;;;5019286;28;20456;-44
2022/05/02 09:34:51;;;;;;;13.47;12.00;;;25.20;38.50;;;;;;5023673;28;20456;-43
2022/05/02 09:37:30;;;;;;;10.67;9.23;;;25.40;38.90;;;;;;5019873;28;20475;-44
2022/05/02 09:40:10;;;;;;;11.27;10.17;;;25.40;38.30;;;;;;5024685;28;20454;-45
2022/05/02 09:42:39;;;;;;;9.80;8.90;;;25.50;40.10;;;;;;5023630;28;20572;-45
2022/05/02 09:51:51;;;;;;;9.10;8.40;;;25.80;40.50;;;;;;5026912;28;20483;-45
2022/05/02 09:56:37;;;;;;;11.00;10.00;;;26.00;38.90;;;;;;5020095;28;20444;-45
2022/05/02 09:57:17;;;;;;;12.80;9.67;;;26.20;37.80;;;;;;5016580;28;20468;-45
2022/05/02 09:59:48;;;;;;;12.77;11.70;;;26.30;38.50;;;;;;5026336;28;20452;-45
2022/05/02 10:02:21;;;;;;;12.50;11.23;;;26.30;37.60;;;;;;5022751;28;20455;-44
2022/05/02 10:05:06;;;;;;;9.63;8.83;;;26.40;38.30;;;;;;5025029;28;21038;-44
2022/05/02 10:07:52;;;;;;;10.27;9.27;;;26.40;38.40;;;;;;5026670;28;20843;-45
2022/05/02 10:10:45;;;;;;;10.60;9.33;;;26.20;39.40;;;;;;5030096;28;20982;-48
2022/05/02 10:13:20;;;;;;;8.90;8.00;;;26.20;40.30;;;;;;5030341;28;20443;-45
2022/05/02 10:15:45;;;;;;;8.80;8.07;;;26.50;39.70;;;;;;5027614;28;20470;-44
2022/05/02 10:18:14;;;;;;;9.20;8.40;;;26.80;38.00;;;;;;5027123;28;20445;-43
2022/05/02 10:21:09;;;;;;;9.80;8.97;;;27.10;35.80;;;;;;5025986;28;20252;-44
2022/05/02 10:23:54;;;;;;;9.50;8.60;;;27.20;35.00;;;;;;5031486;28;20617;-43
2022/05/02 10:26:36;;;;;;;10.03;9.23;;;27.20;34.90;;;;;;5026186;28;20452;-44
2022/05/02 10:29:13;;;;;;;9.80;9.00;;;27.30;34.60;;;;;;5027901;28;20463;-48
2022/05/02 10:31:41;;;;;;;8.13;7.43;;;27.50;36.00;;;;;;5030329;28;20450;-44
2022/05/02 10:34:12;;;;;;;9.07;8.17;;;27.60;37.20;;;;;;5017282;28;20444;-44
2022/05/02 10:36:40;;;;;;;8.50;7.90;;;27.70;34.60;;;;;;5029077;28;20443;-45
2022/05/02 10:39:38;;;;;;;8.60;7.90;;;27.70;35.20;;;;;;5025442;28;20433;-45
2022/05/02 10:42:06;;;;;;;7.97;7.37;;;27.60;34.10;;;;;;5029015;28;20454;-45
2022/05/02 10:45:01;;;;;;;7.30;6.70;;;27.50;35.40;;;;;;5025955;28;21004;-45
2022/05/02 10:47:39;;;;;;;9.30;8.50;;;27.50;34.70;;;;;;5011275;28;20487;-45
2022/05/02 10:50:40;;;;;;;8.20;7.47;;;27.50;34.20;;;;;;5030762;28;20510;-43
2022/05/02 10:53:43;;;;;;;7.47;6.97;;;26.80;34.50;;;;;;5024084;28;20443;-44
2022/05/02 10:56:28;;;;;;;5.83;5.33;;;27.00;35.90;;;;;;5026411;28;20478;-44
2022/05/02 10:58:54;;;;;;;7.63;7.03;;;27.20;37.10;;;;;;5021208;28;20982;-43
2022/05/02 11:01:48;;;;;;;5.83;5.43;;;27.40;36.20;;;;;;5026438;28;20444;-44
2022/05/02 11:04:38;;;;;;;6.37;5.77;;;27.60;35.60;;;;;;5030725;28;20229;-45
2022/05/02 11:07:08;;;;;;;5.43;5.03;;;27.60;35.10;;;;;;5029974;28;20448;-45
2022/05/02 11:10:00;;;;;;;6.80;6.20;;;27.60;34.80;;;;;;5026135;28;21009;-43
2022/05/02 11:12:31;;;;;;;5.27;4.97;;;27.70;34.80;;;;;;5035780;28;20783;-44
2022/05/02 11:15:08;;;;;;;8.00;5.30;;;27.50;35.00;;;;;;5029399;28;20451;-44
2022/05/02 11:18:07;;;;;;;5.07;4.67;;;27.60;35.20;;;;;;5020554;28;20482;-44
2022/05/02 11:21:00;;;;;;;6.07;5.63;;;27.70;34.70;;;;;;5019862;28;21021;-46
2022/05/02 11:23:40;;;;;;;5.40;4.90;;;27.80;34.20;;;;;;5020918;28;20530;-43
2022/05/02 11:26:32;;;;;;;5.53;5.00;;;27.50;33.10;;;;;;5026882;28;20446;-45
2022/05/02 11:29:13;;;;;;;6.80;6.20;;;27.50;34.40;;;;;;4991467;28;20514;-47
2022/05/02 11:31:56;;;;;;;5.60;5.20;;;27.60;32.90;;;;;;5026912;28;20440;-44
2022/05/02 11:34:34;;;;;;;4.63;4.33;;;27.90;33.40;;;;;;5025678;28;20879;-45
2022/05/02 11:37:00;;;;;;;6.07;5.50;;;28.10;33.90;;;;;;5027306;28;20475;-44
2022/05/02 11:39:38;;;;;;;6.00;5.60;;;28.30;32.90;;;;;;5019354;28;20444;-46
2022/05/02 11:42:10;;;;;;;6.03;5.53;;;28.20;32.00;;;;;;5023884;28;20467;-43
2022/05/02 11:44:46;;;;;;;7.17;6.50;;;27.60;32.00;;;;;;5027551;28;20492;-45
2022/05/02 11:47:20;;;;;;;6.50;6.00;;;27.40;32.00;;;;;;5029397;28;20977;-44
2022/05/02 11:49:53;;;;;;;6.30;5.77;;;27.50;31.80;;;;;;5031591;28;20448;-45
2022/05/02 11:52:36;;;;;;;6.13;5.63;;;27.60;32.60;;;;;;5029187;28;20455;-44
2022/05/02 11:55:04;;;;;;;5.97;5.47;;;27.60;31.70;;;;;;5026386;28;20460;-44
2022/05/02 11:57:39;;;;;;;5.30;4.80;;;27.50;32.60;;;;;;5023622;28;20483;-44
2022/05/02 12:00:14;;;;;;;6.20;5.70;;;27.60;34.10;;;;;;5028668;28;20600;-45
2022/05/02 12:02:44;;;;;;;5.70;5.03;;;27.90;33.50;;;;;;5029858;28;20525;-45
2022/05/02 12:05:25;;;;;;;5.27;4.77;;;27.80;32.30;;;;;;5023286;28;20638;-44
2022/05/02 12:07:57;;;;;;;5.37;4.97;;;27.80;31.70;;;;;;5020577;28;20451;-44
2022/05/02 12:10:37;;;;;;;5.00;4.60;;;27.80;31.30;;;;;;5020471;28;20448;-44
2022/05/02 12:13:05;;;;;;;5.30;4.90;;;27.20;31.10;;;;;;5027481;28;20547;-44
2022/05/02 12:15:31;;;;;;;5.80;5.10;;;26.70;32.40;;;;;;5019279;28;20787;-44
2022/05/02 12:18:01;;;;;;;5.80;5.30;;;25.90;33.40;;;;;;5024357;28;20448;-43
2022/05/02 12:20:31;;;;;;;6.03;5.47;;;26.20;34.10;;;;;;5021656;28;20190;-45
2022/05/02 12:23:09;;;;;;;6.30;5.80;;;26.50;33.60;;;;;;5020957;28;20583;-45
2022/05/02 12:25:45;;;;;;;5.53;4.97;;;26.70;33.50;;;;;;5022316;28;21240;-48
2022/05/02 12:28:11;;;;;;;5.53;5.13;;;26.90;32.90;;;;;;5029492;28;20454;-46
2022/05/02 12:30:39;;;;;;;5.37;5.03;;;26.80;33.20;;;;;;5027268;28;20871;-43
2022/05/02 12:33:06;;;;;;;5.47;4.97;;;26.80;32.70;;;;;;5021644;28;20488;-47
2022/05/02 12:35:42;;;;;;;5.40;5.00;;;26.90;32.60;;;;;;5026269;28;21241;-44
2022/05/02 12:38:16;;;;;;;5.33;4.97;;;27.00;33.30;;;;;;5021968;28;20482;-44
2022/05/02 12:40:42;;;;;;;5.60;5.20;;;27.00;34.50;;;;;;5024457;28;20444;-45
2022/05/02 12:43:24;;;;;;;5.73;4.77;;;26.90;32.90;;;;;;5021898;28;20541;-46
2022/05/02 12:45:50;;;;;;;5.23;4.90;;;26.90;32.80;;;;;;5016669;28;20817;-45
2022/05/02 12:48:48;;;;;;;5.30;4.90;;;26.90;33.10;;;;;;5022736;28;20486;-44
2022/05/02 12:51:20;;;;;;;5.53;5.03;;;26.60;32.30;;;;;;5027125;28;20611;-44
2022/05/02 12:56:30;;;;;;;6.03;4.90;;;26.20;34.60;;;;;;5027517;28;20454;-44
2022/05/02 13:01:44;;;;;;;5.10;4.70;;;26.50;34.80;;;;;;5024969;28;20212;-48
2022/05/02 13:04:22;;;;;;;5.93;5.33;;;26.70;33.60;;;;;;5020855;28;20527;-45
2022/05/02 13:06:49;;;;;;;5.40;4.90;;;26.90;34.10;;;;;;5020326;28;20467;-44
2022/05/02 13:09:18;;;;;;;5.63;5.23;;;26.70;33.80;;;;;;5026948;28;20485;-45
2022/05/02 13:11:45;;;;;;;5.20;4.80;;;26.80;33.90;;;;;;5025729;28;20446;-46
2022/05/02 13:14:23;;;;;;;4.93;4.53;;;26.60;33.80;;;;;;5027820;28;20451;-44
2022/05/02 13:16:49;;;;;;;5.43;5.03;;;26.50;35.10;;;;;;5021295;28;20452;-44
2022/05/02 13:19:15;;;;;;;5.60;5.20;;;26.90;34.10;;;;;;5028967;28;20455;-44
2022/05/02 13:21:41;;;;;;;6.20;5.23;;;27.00;36.40;;;;;;5027694;28;20479;-44
2022/05/02 13:24:12;;;;;;;5.43;4.93;;;27.30;34.20;;;;;;5029683;28;20488;-45
2022/05/02 13:27:02;;;;;;;4.90;4.50;;;27.50;35.70;;;;;;5023015;28;20459;-45
2022/05/02 13:29:37;;;;;;;4.70;4.33;;;27.80;33.80;;;;;;5025619;28;20930;-45
2022/05/02 13:32:07;;;;;;;4.30;4.00;;;27.90;32.60;;;;;;5026993;28;20450;-45
2022/05/02 13:35:10;;;;;;;5.33;4.93;;;27.90;34.10;;;;;;5029396;28;20476;-45
2022/05/02 13:37:54;;;;;;;5.67;5.17;;;27.80;31.90;;;;;;5026679;28;20542;-45
2022/05/02 13:40:21;;;;;;;4.30;3.90;;;27.50;32.20;;;;;;5028315;28;20474;-45